sensor_id;sensor_type;location;lat;lon;timestamp;pressure;altitude;pressure_sealevel;temperature;humidity
8641;BME280;4358;42.100;25.222;2023-08-07T00:01:35;99118.84;;;23.90;92.07
8641;BME280;4358;42.100;25.222;2023-08-07T00:04:04;99129.00;;;23.82;92.55
8641;BME280;4358;42.100;25.222;2023-08-07T00:06:31;99136.94;;;23.77;93.37
8641;BME280;4358;42.100;25.222;2023-08-07T00:08:58;99146.50;;;23.73;93.42
8641;BME280;4358;42.100;25.222;2023-08-07T00:11:24;99147.97;;;23.69;93.33
8641;BME280;4358;42.100;25.222;2023-08-07T00:13:53;99153.38;;;23.69;93.62
8641;BME280;4358;42.100;25.222;2023-08-07T00:16:20;99153.16;;;23.63;93.02
8641;BME280;4358;42.100;25.222;2023-08-07T00:18:47;99165.00;;;23.56;93.63
8641;BME280;4358;42.100;25.222;2023-08-07T00:21:15;99160.63;;;23.48;94.26
8641;BME280;4358;42.100;25.222;2023-08-07T00:23:42;99165.13;;;23.41;94.66
8641;BME280;4358;42.100;25.222;2023-08-07T00:26:09;99170.09;;;23.31;95.28
8641;BME280;4358;42.100;25.222;2023-08-07T00:28:35;99170.09;;;23.31;95.24
8641;BME280;4358;42.100;25.222;2023-08-07T00:31:02;99173.41;;;23.27;95.50
8641;BME280;4358;42.100;25.222;2023-08-07T00:33:29;99176.09;;;23.20;96.44
8641;BME280;4358;42.100;25.222;2023-08-07T00:35:56;99182.09;;;23.15;96.44
8641;BME280;4358;42.100;25.222;2023-08-07T00:38:24;99175.44;;;23.11;96.70
8641;BME280;4358;42.100;25.222;2023-08-07T00:40:51;99189.31;;;23.02;97.34
8641;BME280;4358;42.100;25.222;2023-08-07T00:43:18;99189.47;;;22.94;97.98
8641;BME280;4358;42.100;25.222;2023-08-07T00:45:46;99197.16;;;22.90;98.41
8641;BME280;4358;42.100;25.222;2023-08-07T00:48:14;99201.53;;;22.91;98.27
8641;BME280;4358;42.100;25.222;2023-08-07T00:50:44;99198.78;;;22.85;98.62
8641;BME280;4358;42.100;25.222;2023-08-07T00:53:12;99195.84;;;22.79;98.57
8641;BME280;4358;42.100;25.222;2023-08-07T00:55:41;99204.38;;;22.76;98.72
8641;BME280;4358;42.100;25.222;2023-08-07T00:58:08;99192.34;;;22.86;98.37
8641;BME280;4358;42.100;25.222;2023-08-07T01:00:35;99196.88;;;22.78;97.63
8641;BME280;4358;42.100;25.222;2023-08-07T01:03:05;99201.00;;;22.74;97.63
8641;BME280;4358;42.100;25.222;2023-08-07T01:05:32;99207.25;;;22.75;97.69
8641;BME280;4358;42.100;25.222;2023-08-07T01:07:59;99204.88;;;22.65;98.43
8641;BME280;4358;42.100;25.222;2023-08-07T01:10:35;99213.00;;;22.65;98.18
8641;BME280;4358;42.100;25.222;2023-08-07T01:13:14;99218.78;;;22.62;98.33
8641;BME280;4358;42.100;25.222;2023-08-07T01:15:43;99220.00;;;22.60;98.63
8641;BME280;4358;42.100;25.222;2023-08-07T01:18:11;99218.34;;;22.59;98.75
8641;BME280;4358;42.100;25.222;2023-08-07T01:20:40;99228.84;;;22.47;98.85
8641;BME280;4358;42.100;25.222;2023-08-07T01:23:08;99232.19;;;22.49;98.81
8641;BME280;4358;42.100;25.222;2023-08-07T01:25:35;99226.13;;;22.47;99.20
8641;BME280;4358;42.100;25.222;2023-08-07T01:28:08;99212.44;;;22.49;98.90
8641;BME280;4358;42.100;25.222;2023-08-07T01:30:42;99222.16;;;22.43;99.46
8641;BME280;4358;42.100;25.222;2023-08-07T01:33:16;99227.75;;;22.42;99.97
8641;BME280;4358;42.100;25.222;2023-08-07T01:35:49;99239.41;;;22.42;100.00
8641;BME280;4358;42.100;25.222;2023-08-07T01:38:21;99247.91;;;22.39;100.00
8641;BME280;4358;42.100;25.222;2023-08-07T01:40:51;99244.63;;;22.44;99.93
8641;BME280;4358;42.100;25.222;2023-08-07T01:43:18;99235.69;;;22.43;99.63
8641;BME280;4358;42.100;25.222;2023-08-07T01:45:45;99251.91;;;22.43;99.73
8641;BME280;4358;42.100;25.222;2023-08-07T01:48:12;99260.59;;;22.38;100.00
8641;BME280;4358;42.100;25.222;2023-08-07T01:50:39;99263.09;;;22.40;99.92
8641;BME280;4358;42.100;25.222;2023-08-07T01:53:06;99260.38;;;22.40;100.00
8641;BME280;4358;42.100;25.222;2023-08-07T01:55:34;99256.13;;;22.31;100.00
8641;BME280;4358;42.100;25.222;2023-08-07T01:58:01;99251.38;;;22.33;100.00
8641;BME280;4358;42.100;25.222;2023-08-07T02:00:28;99254.34;;;22.17;100.00
8641;BME280;4358;42.100;25.222;2023-08-07T02:02:55;99257.13;;;22.23;100.00
8641;BME280;4358;42.100;25.222;2023-08-07T02:05:22;99254.78;;;22.20;100.00
8641;BME280;4358;42.100;25.222;2023-08-07T02:07:49;99265.72;;;22.12;100.00
8641;BME280;4358;42.100;25.222;2023-08-07T02:10:16;99263.63;;;22.08;100.00
8641;BME280;4358;42.100;25.222;2023-08-07T02:12:44;99257.56;;;22.06;100.00
8641;BME280;4358;42.100;25.222;2023-08-07T02:15:11;99262.44;;;21.95;100.00
8641;BME280;4358;42.100;25.222;2023-08-07T02:17:37;99264.97;;;21.82;100.00
8641;BME280;4358;42.100;25.222;2023-08-07T02:20:07;99263.63;;;21.78;100.00
8641;BME280;4358;42.100;25.222;2023-08-07T02:22:34;99259.84;;;21.73;100.00
8641;BME280;4358;42.100;25.222;2023-08-07T02:25:01;99262.47;;;21.66;100.00
8641;BME280;4358;42.100;25.222;2023-08-07T02:27:27;99258.09;;;21.65;100.00
8641;BME280;4358;42.100;25.222;2023-08-07T02:29:56;99260.63;;;21.67;100.00
8641;BME280;4358;42.100;25.222;2023-08-07T02:32:23;99275.13;;;21.66;100.00
8641;BME280;4358;42.100;25.222;2023-08-07T02:34:50;99280.91;;;21.63;100.00
8641;BME280;4358;42.100;25.222;2023-08-07T02:37:16;99279.44;;;21.60;100.00
8641;BME280;4358;42.100;25.222;2023-08-07T02:39:44;99280.44;;;21.59;100.00
8641;BME280;4358;42.100;25.222;2023-08-07T02:42:11;99285.00;;;21.59;100.00
8641;BME280;4358;42.100;25.222;2023-08-07T02:44:37;99286.25;;;21.56;100.00
8641;BME280;4358;42.100;25.222;2023-08-07T02:47:06;99287.34;;;21.47;100.00
8641;BME280;4358;42.100;25.222;2023-08-07T02:49:33;99286.97;;;21.50;100.00
8641;BME280;4358;42.100;25.222;2023-08-07T02:52:00;99293.97;;;21.44;100.00
8641;BME280;4358;42.100;25.222;2023-08-07T02:54:26;99301.69;;;21.33;100.00
8641;BME280;4358;42.100;25.222;2023-08-07T02:56:53;99292.00;;;21.24;100.00
8641;BME280;4358;42.100;25.222;2023-08-07T02:59:20;99308.56;;;21.21;100.00
8641;BME280;4358;42.100;25.222;2023-08-07T03:01:47;99310.63;;;21.19;100.00
8641;BME280;4358;42.100;25.222;2023-08-07T03:04:15;99318.50;;;21.20;100.00
8641;BME280;4358;42.100;25.222;2023-08-07T03:06:42;99327.69;;;21.11;100.00
8641;BME280;4358;42.100;25.222;2023-08-07T03:09:08;99328.94;;;21.23;100.00
8641;BME280;4358;42.100;25.222;2023-08-07T03:11:36;99328.84;;;21.17;100.00
8641;BME280;4358;42.100;25.222;2023-08-07T03:14:02;99329.38;;;21.12;100.00
8641;BME280;4358;42.100;25.222;2023-08-07T03:16:29;99344.72;;;21.11;100.00
8641;BME280;4358;42.100;25.222;2023-08-07T03:18:56;99345.69;;;21.19;100.00
8641;BME280;4358;42.100;25.222;2023-08-07T03:21:25;99332.63;;;21.07;100.00
8641;BME280;4358;42.100;25.222;2023-08-07T03:23:52;99333.81;;;21.05;100.00
8641;BME280;4358;42.100;25.222;2023-08-07T03:26:19;99328.78;;;21.02;100.00
8641;BME280;4358;42.100;25.222;2023-08-07T03:28:46;99332.09;;;20.89;100.00
8641;BME280;4358;42.100;25.222;2023-08-07T03:31:13;99329.78;;;20.86;100.00
8641;BME280;4358;42.100;25.222;2023-08-07T03:33:40;99333.78;;;20.67;100.00
8641;BME280;4358;42.100;25.222;2023-08-07T03:36:07;99331.66;;;20.63;100.00
8641;BME280;4358;42.100;25.222;2023-08-07T03:38:36;99332.31;;;20.65;100.00
8641;BME280;4358;42.100;25.222;2023-08-07T03:41:03;99327.47;;;20.60;100.00
8641;BME280;4358;42.100;25.222;2023-08-07T03:43:30;99336.09;;;20.56;100.00
8641;BME280;4358;42.100;25.222;2023-08-07T03:45:57;99334.97;;;20.50;100.00
8641;BME280;4358;42.100;25.222;2023-08-07T03:48:24;99335.13;;;20.49;100.00
8641;BME280;4358;42.100;25.222;2023-08-07T03:50:50;99345.03;;;20.56;100.00
8641;BME280;4358;42.100;25.222;2023-08-07T03:53:17;99342.69;;;20.53;100.00
8641;BME280;4358;42.100;25.222;2023-08-07T03:55:50;99340.53;;;20.49;100.00
8641;BME280;4358;42.100;25.222;2023-08-07T03:58:17;99341.31;;;20.35;100.00
8641;BME280;4358;42.100;25.222;2023-08-07T04:00:44;99340.41;;;20.42;100.00
8641;BME280;4358;42.100;25.222;2023-08-07T04:03:11;99333.81;;;20.45;100.00
8641;BME280;4358;42.100;25.222;2023-08-07T04:05:37;99345.84;;;20.57;100.00
8641;BME280;4358;42.100;25.222;2023-08-07T04:08:04;99351.50;;;20.70;100.00
8641;BME280;4358;42.100;25.222;2023-08-07T04:10:31;99356.47;;;20.81;100.00
8641;BME280;4358;42.100;25.222;2023-08-07T04:12:59;99345.41;;;20.91;100.00
8641;BME280;4358;42.100;25.222;2023-08-07T04:15:26;99354.63;;;20.96;100.00
8641;BME280;4358;42.100;25.222;2023-08-07T04:17:53;99361.34;;;21.00;100.00
8641;BME280;4358;42.100;25.222;2023-08-07T04:20:20;99369.84;;;21.12;100.00
8641;BME280;4358;42.100;25.222;2023-08-07T04:22:46;99371.66;;;21.20;100.00
8641;BME280;4358;42.100;25.222;2023-08-07T04:25:13;99379.66;;;21.28;100.00
8641;BME280;4358;42.100;25.222;2023-08-07T04:27:40;99372.31;;;21.36;100.00
8641;BME280;4358;42.100;25.222;2023-08-07T04:30:10;99371.13;;;21.39;100.00
8641;BME280;4358;42.100;25.222;2023-08-07T04:32:37;99386.59;;;21.45;100.00
8641;BME280;4358;42.100;25.222;2023-08-07T04:35:05;99369.66;;;21.51;100.00
8641;BME280;4358;42.100;25.222;2023-08-07T04:37:32;99375.63;;;21.61;100.00
8641;BME280;4358;42.100;25.222;2023-08-07T04:39:58;99385.03;;;21.65;100.00
8641;BME280;4358;42.100;25.222;2023-08-07T04:42:26;99390.41;;;21.80;100.00
8641;BME280;4358;42.100;25.222;2023-08-07T04:44:53;99386.41;;;21.90;100.00
8641;BME280;4358;42.100;25.222;2023-08-07T04:47:21;99390.34;;;22.03;100.00
8641;BME280;4358;42.100;25.222;2023-08-07T04:49:48;99386.69;;;22.10;100.00
8641;BME280;4358;42.100;25.222;2023-08-07T04:52:15;99384.72;;;22.19;100.00
8641;BME280;4358;42.100;25.222;2023-08-07T04:54:42;99383.19;;;22.31;100.00
8641;BME280;4358;42.100;25.222;2023-08-07T04:57:09;99386.16;;;22.36;100.00
8641;BME280;4358;42.100;25.222;2023-08-07T04:59:36;99385.84;;;22.46;100.00
8641;BME280;4358;42.100;25.222;2023-08-07T05:02:03;99397.97;;;22.50;100.00
8641;BME280;4358;42.100;25.222;2023-08-07T05:04:31;99393.00;;;22.53;100.00
8641;BME280;4358;42.100;25.222;2023-08-07T05:06:58;99397.66;;;22.59;100.00
8641;BME280;4358;42.100;25.222;2023-08-07T05:09:25;99398.19;;;22.69;100.00
8641;BME280;4358;42.100;25.222;2023-08-07T05:11:52;99401.69;;;22.85;100.00
8641;BME280;4358;42.100;25.222;2023-08-07T05:14:19;99403.22;;;22.94;100.00
8641;BME280;4358;42.100;25.222;2023-08-07T05:16:46;99405.16;;;23.00;99.66
8641;BME280;4358;42.100;25.222;2023-08-07T05:19:13;99412.91;;;23.03;99.62
8641;BME280;4358;42.100;25.222;2023-08-07T05:21:41;99410.25;;;23.09;99.42
8641;BME280;4358;42.100;25.222;2023-08-07T05:24:08;99407.59;;;23.16;99.48
8641;BME280;4358;42.100;25.222;2023-08-07T05:26:35;99416.63;;;23.23;98.61
8641;BME280;4358;42.100;25.222;2023-08-07T05:29:02;99415.97;;;23.21;97.74
8641;BME280;4358;42.100;25.222;2023-08-07T05:31:29;99414.16;;;23.28;98.01
8641;BME280;4358;42.100;25.222;2023-08-07T05:33:56;99421.13;;;23.37;97.22
8641;BME280;4358;42.100;25.222;2023-08-07T05:36:23;99415.28;;;23.40;97.66
8641;BME280;4358;42.100;25.222;2023-08-07T05:38:51;99415.56;;;23.45;96.52
8641;BME280;4358;42.100;25.222;2023-08-07T05:41:17;99416.88;;;23.49;97.35
8641;BME280;4358;42.100;25.222;2023-08-07T05:43:45;99422.66;;;23.46;96.88
8641;BME280;4358;42.100;25.222;2023-08-07T05:46:12;99417.97;;;23.55;97.53
8641;BME280;4358;42.100;25.222;2023-08-07T05:48:39;99418.44;;;23.65;95.42
8641;BME280;4358;42.100;25.222;2023-08-07T05:51:06;99427.00;;;23.69;94.62
8641;BME280;4358;42.100;25.222;2023-08-07T05:53:34;99420.00;;;23.81;94.74
8641;BME280;4358;42.100;25.222;2023-08-07T05:56:03;99428.78;;;23.89;93.95
8641;BME280;4358;42.100;25.222;2023-08-07T05:58:29;99431.78;;;24.01;93.42
8641;BME280;4358;42.100;25.222;2023-08-07T06:00:56;99431.41;;;24.11;92.77
8641;BME280;4358;42.100;25.222;2023-08-07T06:03:23;99438.47;;;24.05;92.02
8641;BME280;4358;42.100;25.222;2023-08-07T06:05:50;99442.69;;;24.14;92.39
8641;BME280;4358;42.100;25.222;2023-08-07T06:08:17;99455.88;;;24.17;91.68
8641;BME280;4358;42.100;25.222;2023-08-07T06:10:43;99430.69;;;24.23;92.12
8641;BME280;4358;42.100;25.222;2023-08-07T06:13:12;99429.94;;;24.42;90.63
8641;BME280;4358;42.100;25.222;2023-08-07T06:15:38;99419.53;;;24.53;90.47
8641;BME280;4358;42.100;25.222;2023-08-07T06:18:05;99431.66;;;24.63;89.49
8641;BME280;4358;42.100;25.222;2023-08-07T06:20:33;99435.00;;;24.72;88.88
8641;BME280;4358;42.100;25.222;2023-08-07T06:23:00;99442.56;;;24.83;87.84
8641;BME280;4358;42.100;25.222;2023-08-07T06:25:27;99430.50;;;24.92;87.26
8641;BME280;4358;42.100;25.222;2023-08-07T06:27:54;99459.53;;;24.98;85.17
8641;BME280;4358;42.100;25.222;2023-08-07T06:30:22;99447.63;;;24.99;85.52
8641;BME280;4358;42.100;25.222;2023-08-07T06:32:49;99448.06;;;25.09;84.06
8641;BME280;4358;42.100;25.222;2023-08-07T06:35:15;99442.66;;;25.22;84.62
8641;BME280;4358;42.100;25.222;2023-08-07T06:37:42;99452.69;;;25.28;83.27
8641;BME280;4358;42.100;25.222;2023-08-07T06:40:10;99457.28;;;25.41;83.22
8641;BME280;4358;42.100;25.222;2023-08-07T06:42:37;99466.09;;;25.56;82.16
8641;BME280;4358;42.100;25.222;2023-08-07T06:45:04;99453.56;;;25.62;82.08
8641;BME280;4358;42.100;25.222;2023-08-07T06:47:33;99451.47;;;25.64;82.20
8641;BME280;4358;42.100;25.222;2023-08-07T06:49:59;99443.53;;;25.56;81.72
8641;BME280;4358;42.100;25.222;2023-08-07T06:52:26;99443.13;;;25.59;81.41
8641;BME280;4358;42.100;25.222;2023-08-07T06:54:53;99434.97;;;25.59;81.26
8641;BME280;4358;42.100;25.222;2023-08-07T06:57:20;99453.75;;;25.67;81.50
8641;BME280;4358;42.100;25.222;2023-08-07T06:59:47;99459.81;;;25.69;80.32
8641;BME280;4358;42.100;25.222;2023-08-07T07:02:13;99449.78;;;25.63;81.66
8641;BME280;4358;42.100;25.222;2023-08-07T07:04:42;99464.84;;;25.59;80.95
8641;BME280;4358;42.100;25.222;2023-08-07T07:07:08;99451.88;;;25.74;81.64
8641;BME280;4358;42.100;25.222;2023-08-07T07:09:35;99456.44;;;25.87;80.10
8641;BME280;4358;42.100;25.222;2023-08-07T07:12:03;99454.34;;;25.95;80.75
8641;BME280;4358;42.100;25.222;2023-08-07T07:14:29;99458.50;;;26.04;81.17
8641;BME280;4358;42.100;25.222;2023-08-07T07:16:56;99446.72;;;26.17;79.97
8641;BME280;4358;42.100;25.222;2023-08-07T07:19:23;99454.25;;;26.28;79.92
8641;BME280;4358;42.100;25.222;2023-08-07T07:21:51;99455.28;;;26.40;78.69
8641;BME280;4358;42.100;25.222;2023-08-07T07:24:18;99424.16;;;26.17;78.53
8641;BME280;4358;42.100;25.222;2023-08-07T07:26:45;99459.28;;;26.31;79.83
8641;BME280;4358;42.100;25.222;2023-08-07T07:29:12;99463.84;;;26.44;77.83
8641;BME280;4358;42.100;25.222;2023-08-07T07:31:39;99453.44;;;26.28;78.71
8641;BME280;4358;42.100;25.222;2023-08-07T07:34:06;99453.59;;;26.39;78.97
8641;BME280;4358;42.100;25.222;2023-08-07T07:36:32;99452.09;;;26.50;77.90
8641;BME280;4358;42.100;25.222;2023-08-07T07:39:01;99471.75;;;26.59;77.14
8641;BME280;4358;42.100;25.222;2023-08-07T07:41:27;99466.25;;;26.65;76.95
8641;BME280;4358;42.100;25.222;2023-08-07T07:43:54;99449.91;;;26.72;78.33
8641;BME280;4358;42.100;25.222;2023-08-07T07:46:22;99458.91;;;27.10;76.17
8641;BME280;4358;42.100;25.222;2023-08-07T07:48:49;99452.97;;;27.20;76.31
8641;BME280;4358;42.100;25.222;2023-08-07T07:51:15;99465.25;;;27.04;75.29
8641;BME280;4358;42.100;25.222;2023-08-07T07:53:42;99463.56;;;27.03;77.48
8641;BME280;4358;42.100;25.222;2023-08-07T07:56:10;99462.72;;;27.03;73.80
8641;BME280;4358;42.100;25.222;2023-08-07T07:58:37;99453.91;;;27.07;73.09
8641;BME280;4358;42.100;25.222;2023-08-07T08:01:06;99452.16;;;27.19;72.28
8641;BME280;4358;42.100;25.222;2023-08-07T08:03:34;99460.03;;;27.27;72.22
8641;BME280;4358;42.100;25.222;2023-08-07T08:06:00;99458.09;;;27.34;71.90
8641;BME280;4358;42.100;25.222;2023-08-07T08:08:27;99462.38;;;27.55;72.84
8641;BME280;4358;42.100;25.222;2023-08-07T08:10:54;99468.09;;;27.72;71.49
8641;BME280;4358;42.100;25.222;2023-08-07T08:13:22;99459.13;;;27.90;70.34
8641;BME280;4358;42.100;25.222;2023-08-07T08:15:51;99462.16;;;28.00;68.37
8641;BME280;4358;42.100;25.222;2023-08-07T08:18:17;99461.84;;;28.08;69.61
8641;BME280;4358;42.100;25.222;2023-08-07T08:20:44;99470.53;;;28.23;69.07
8641;BME280;4358;42.100;25.222;2023-08-07T08:23:11;99467.81;;;28.41;64.53
8641;BME280;4358;42.100;25.222;2023-08-07T08:25:38;99463.84;;;28.55;66.99
8641;BME280;4358;42.100;25.222;2023-08-07T08:28:05;99472.34;;;28.47;65.54
8641;BME280;4358;42.100;25.222;2023-08-07T08:30:33;99463.25;;;28.35;69.43
8641;BME280;4358;42.100;25.222;2023-08-07T08:33:00;99458.25;;;28.32;69.26
8641;BME280;4358;42.100;25.222;2023-08-07T08:35:27;99466.44;;;28.50;65.02
8641;BME280;4358;42.100;25.222;2023-08-07T08:37:54;99456.47;;;28.74;66.09
8641;BME280;4358;42.100;25.222;2023-08-07T08:40:21;99458.50;;;28.79;65.32
8641;BME280;4358;42.100;25.222;2023-08-07T08:42:49;99450.00;;;28.87;63.67
8641;BME280;4358;42.100;25.222;2023-08-07T08:45:18;99472.69;;;28.87;63.19
8641;BME280;4358;42.100;25.222;2023-08-07T08:47:49;99474.22;;;28.83;64.50
8641;BME280;4358;42.100;25.222;2023-08-07T08:50:18;99455.34;;;28.82;62.80
8641;BME280;4358;42.100;25.222;2023-08-07T08:52:46;99461.53;;;28.71;64.20
8641;BME280;4358;42.100;25.222;2023-08-07T08:55:13;99472.03;;;28.74;64.73
8641;BME280;4358;42.100;25.222;2023-08-07T08:57:41;99452.53;;;28.88;64.63
8641;BME280;4358;42.100;25.222;2023-08-07T09:00:09;99455.75;;;28.97;63.16
8641;BME280;4358;42.100;25.222;2023-08-07T09:02:43;99451.16;;;29.09;60.43
8641;BME280;4358;42.100;25.222;2023-08-07T09:05:12;99451.44;;;29.19;60.88
8641;BME280;4358;42.100;25.222;2023-08-07T09:07:39;99445.44;;;29.40;60.74
8641;BME280;4358;42.100;25.222;2023-08-07T09:10:07;99435.81;;;29.50;58.44
8641;BME280;4358;42.100;25.222;2023-08-07T09:12:37;99432.13;;;29.44;59.70
8641;BME280;4358;42.100;25.222;2023-08-07T09:15:07;99435.22;;;29.36;58.01
8641;BME280;4358;42.100;25.222;2023-08-07T09:17:41;99430.09;;;29.39;53.90
8641;BME280;4358;42.100;25.222;2023-08-07T09:20:10;99430.22;;;29.44;51.62
8641;BME280;4358;42.100;25.222;2023-08-07T09:22:39;99426.06;;;29.65;51.83
8641;BME280;4358;42.100;25.222;2023-08-07T09:25:07;99439.53;;;29.90;50.01
8641;BME280;4358;42.100;25.222;2023-08-07T09:27:36;99433.72;;;29.98;48.92
8641;BME280;4358;42.100;25.222;2023-08-07T09:30:05;99432.34;;;29.89;48.23
8641;BME280;4358;42.100;25.222;2023-08-07T09:32:33;99437.25;;;29.87;48.39
8641;BME280;4358;42.100;25.222;2023-08-07T09:35:02;99418.81;;;29.82;48.54
8641;BME280;4358;42.100;25.222;2023-08-07T09:37:29;99416.91;;;30.06;48.68
8641;BME280;4358;42.100;25.222;2023-08-07T09:39:59;99420.94;;;30.15;47.40
8641;BME280;4358;42.100;25.222;2023-08-07T09:42:30;99427.00;;;30.29;48.13
8641;BME280;4358;42.100;25.222;2023-08-07T09:45:00;99420.75;;;30.45;47.66
8641;BME280;4358;42.100;25.222;2023-08-07T09:47:27;99421.66;;;30.22;46.67
8641;BME280;4358;42.100;25.222;2023-08-07T09:49:54;99414.72;;;30.31;45.90
8641;BME280;4358;42.100;25.222;2023-08-07T09:52:21;99412.69;;;30.39;44.41
8641;BME280;4358;42.100;25.222;2023-08-07T09:54:50;99408.50;;;30.48;45.92
8641;BME280;4358;42.100;25.222;2023-08-07T09:57:19;99403.13;;;30.81;45.16
8641;BME280;4358;42.100;25.222;2023-08-07T09:59:49;99405.22;;;30.91;45.74
8641;BME280;4358;42.100;25.222;2023-08-07T10:02:16;99404.03;;;31.15;42.05
8641;BME280;4358;42.100;25.222;2023-08-07T10:04:44;99394.16;;;31.31;41.72
8641;BME280;4358;42.100;25.222;2023-08-07T10:07:11;99391.41;;;31.31;43.20
8641;BME280;4358;42.100;25.222;2023-08-07T10:09:40;99390.09;;;31.33;41.12
8641;BME280;4358;42.100;25.222;2023-08-07T10:12:08;99383.00;;;31.54;43.56
8641;BME280;4358;42.100;25.222;2023-08-07T10:14:36;99386.97;;;31.80;41.84
8641;BME280;4358;42.100;25.222;2023-08-07T10:17:05;99404.69;;;31.72;39.10
8641;BME280;4358;42.100;25.222;2023-08-07T10:19:32;99387.88;;;31.85;39.25
8641;BME280;4358;42.100;25.222;2023-08-07T10:21:59;99383.94;;;31.76;39.19
8641;BME280;4358;42.100;25.222;2023-08-07T10:24:27;99375.31;;;31.89;38.34
8641;BME280;4358;42.100;25.222;2023-08-07T10:26:55;99370.53;;;32.02;38.26
8641;BME280;4358;42.100;25.222;2023-08-07T10:29:25;99372.69;;;32.16;38.01
8641;BME280;4358;42.100;25.222;2023-08-07T10:31:56;99369.75;;;32.23;38.21
8641;BME280;4358;42.100;25.222;2023-08-07T10:34:24;99368.44;;;32.30;37.65
8641;BME280;4358;42.100;25.222;2023-08-07T10:36:51;99370.53;;;32.45;38.04
8641;BME280;4358;42.100;25.222;2023-08-07T10:39:18;99361.28;;;32.51;35.97
8641;BME280;4358;42.100;25.222;2023-08-07T10:41:48;99364.00;;;32.51;36.75
8641;BME280;4358;42.100;25.222;2023-08-07T10:44:19;99351.88;;;32.47;37.33
8641;BME280;4358;42.100;25.222;2023-08-07T10:46:48;99360.94;;;32.69;37.24
8641;BME280;4358;42.100;25.222;2023-08-07T10:49:33;99352.19;;;33.04;37.16
8641;BME280;4358;42.100;25.222;2023-08-07T10:52:08;99354.84;;;33.21;35.11
8641;BME280;4358;42.100;25.222;2023-08-07T10:54:39;99347.56;;;33.42;34.97
8641;BME280;4358;42.100;25.222;2023-08-07T10:57:12;99342.94;;;33.89;34.84
8641;BME280;4358;42.100;25.222;2023-08-07T10:59:44;99335.06;;;34.18;35.53
8641;BME280;4358;42.100;25.222;2023-08-07T11:02:12;99336.94;;;34.08;33.73
8641;BME280;4358;42.100;25.222;2023-08-07T11:04:42;99338.94;;;34.17;33.58
8641;BME280;4358;42.100;25.222;2023-08-07T11:07:09;99334.97;;;33.98;33.80
8641;BME280;4358;42.100;25.222;2023-08-07T11:09:48;99332.09;;;34.30;33.98
8641;BME280;4358;42.100;25.222;2023-08-07T11:12:16;99334.34;;;34.33;33.52
8641;BME280;4358;42.100;25.222;2023-08-07T11:14:42;99325.94;;;34.13;34.88
8641;BME280;4358;42.100;25.222;2023-08-07T11:17:09;99327.03;;;34.01;35.10
8641;BME280;4358;42.100;25.222;2023-08-07T11:19:36;99323.91;;;33.88;36.00
8641;BME280;4358;42.100;25.222;2023-08-07T11:22:05;99323.47;;;34.06;35.26
8641;BME280;4358;42.100;25.222;2023-08-07T11:24:32;99324.41;;;34.32;34.30
8641;BME280;4358;42.100;25.222;2023-08-07T11:26:59;99325.22;;;34.22;35.07
8641;BME280;4358;42.100;25.222;2023-08-07T11:29:26;99315.78;;;34.18;36.33
8641;BME280;4358;42.100;25.222;2023-08-07T11:31:53;99314.50;;;34.36;35.89
8641;BME280;4358;42.100;25.222;2023-08-07T11:34:20;99303.22;;;34.53;35.60
8641;BME280;4358;42.100;25.222;2023-08-07T11:36:48;99312.66;;;34.72;35.18
8641;BME280;4358;42.100;25.222;2023-08-07T11:39:16;99304.34;;;34.67;34.06
8641;BME280;4358;42.100;25.222;2023-08-07T11:41:45;99304.34;;;34.67;33.89
8641;BME280;4358;42.100;25.222;2023-08-07T11:44:12;99298.88;;;34.77;34.74
8641;BME280;4358;42.100;25.222;2023-08-07T11:46:40;99289.97;;;34.44;34.38
8641;BME280;4358;42.100;25.222;2023-08-07T11:49:07;99291.16;;;34.69;34.98
8641;BME280;4358;42.100;25.222;2023-08-07T11:51:35;99296.69;;;34.89;33.75
8641;BME280;4358;42.100;25.222;2023-08-07T11:54:02;99296.13;;;35.33;35.30
8641;BME280;4358;42.100;25.222;2023-08-07T11:56:31;99296.59;;;35.60;34.12
8641;BME280;4358;42.100;25.222;2023-08-07T11:58:58;99285.50;;;35.80;33.30
8641;BME280;4358;42.100;25.222;2023-08-07T12:01:25;99284.44;;;35.66;33.15
8641;BME280;4358;42.100;25.222;2023-08-07T12:03:55;99289.66;;;35.78;33.17
8641;BME280;4358;42.100;25.222;2023-08-07T12:06:23;99283.19;;;36.02;33.15
8641;BME280;4358;42.100;25.222;2023-08-07T12:08:54;99277.69;;;36.02;32.64
8641;BME280;4358;42.100;25.222;2023-08-07T12:11:22;99280.00;;;35.85;34.28
8641;BME280;4358;42.100;25.222;2023-08-07T12:13:51;99282.13;;;35.98;34.35
8641;BME280;4358;42.100;25.222;2023-08-07T12:16:18;99269.91;;;36.09;33.77
8641;BME280;4358;42.100;25.222;2023-08-07T12:18:45;99260.94;;;36.33;33.33
8641;BME280;4358;42.100;25.222;2023-08-07T12:21:14;99268.56;;;36.51;33.06
8641;BME280;4358;42.100;25.222;2023-08-07T12:23:41;99260.91;;;36.43;32.62
8641;BME280;4358;42.100;25.222;2023-08-07T12:26:08;99263.00;;;36.56;33.90
8641;BME280;4358;42.100;25.222;2023-08-07T12:28:36;99268.72;;;36.70;34.66
8641;BME280;4358;42.100;25.222;2023-08-07T12:31:04;99265.59;;;36.81;34.06
8641;BME280;4358;42.100;25.222;2023-08-07T12:33:32;99269.47;;;36.80;33.60
8641;BME280;4358;42.100;25.222;2023-08-07T12:35:59;99273.88;;;36.81;34.58
8641;BME280;4358;42.100;25.222;2023-08-07T12:38:27;99262.78;;;36.86;34.87
8641;BME280;4358;42.100;25.222;2023-08-07T12:40:54;99256.00;;;36.74;35.05
8641;BME280;4358;42.100;25.222;2023-08-07T12:43:21;99266.06;;;36.93;34.39
8641;BME280;4358;42.100;25.222;2023-08-07T12:45:48;99253.06;;;37.23;34.96
8641;BME280;4358;42.100;25.222;2023-08-07T12:48:16;99267.53;;;37.15;36.84
8641;BME280;4358;42.100;25.222;2023-08-07T12:50:43;99263.34;;;36.88;36.67
8641;BME280;4358;42.100;25.222;2023-08-07T12:53:10;99264.94;;;36.95;37.38
8641;BME280;4358;42.100;25.222;2023-08-07T12:55:37;99254.28;;;37.12;37.86
8641;BME280;4358;42.100;25.222;2023-08-07T12:58:04;99265.13;;;37.03;37.12
8641;BME280;4358;42.100;25.222;2023-08-07T13:00:31;99259.03;;;37.01;36.61
8641;BME280;4358;42.100;25.222;2023-08-07T13:02:58;99259.94;;;36.97;36.61
8641;BME280;4358;42.100;25.222;2023-08-07T13:05:28;99244.81;;;36.50;36.22
8641;BME280;4358;42.100;25.222;2023-08-07T13:07:55;99247.56;;;36.50;38.54
8641;BME280;4358;42.100;25.222;2023-08-07T13:10:24;99245.22;;;36.72;37.99